Jacksonville International Airport


Codes: KJAX/JAX
Name: Jacksonville International Airport
City: Jacksonville
Country: United States
Elevation: 30 ft.
Wikipedia:

Photos at Jacksonville International Airport


   Photos courtesy of SpottingLog. You can add your own sightings and photos by signing up for a free trial today.



N395AE, 30-Dec-2020
© Jim Donten

N327GA, 30-Dec-2020
© Jim Donten

N585UW, 30-Dec-2020
© Jim Donten

N821DX, 30-Dec-2020
© Jim Donten

N8569Z, 30-Dec-2020
© Jim Donten

N760JB, 30-Dec-2020
© Jim Donten

N8547V, 30-Dec-2020
© Jim Donten

N16178, 30-Dec-2020
© Jim Donten


Weather at Jacksonville International Airport


Time (UTC)DescriptionTempratureWindCloud coverageVisibilityPressureHumidity
25-Jun-2024 15:00Few Clouds30°C2 mph, W15%10000m1014hPa70%
25-Jun-2024 18:00Light Rain33°C2 mph, SE18%10000m1013hPa57%
25-Jun-2024 21:00Light Rain31°C4 mph, SE94%10000m1013hPa60%
26-Jun-2024 00:00Heavy Intensity Rain25°C7 mph, S94%10000m1013hPa75%
26-Jun-2024 03:00Light Rain25°C2 mph, S43%10000m1014hPa86%
26-Jun-2024 06:00Scattered Clouds24°C2 mph, SW27%10000m1014hPa86%
26-Jun-2024 09:00Clear Sky23°C2 mph, SW6%10000m1013hPa86%
26-Jun-2024 12:00Clear Sky26°C2 mph, SW8%10000m1014hPa79%
26-Jun-2024 15:00Scattered Clouds33°C2 mph, SW29%10000m1013hPa51%
26-Jun-2024 18:00Broken Clouds37°C4 mph, S55%10000m1012hPa37%
26-Jun-2024 21:00Overcast Clouds34°C2 mph, S98%10000m1010hPa45%
27-Jun-2024 00:00Heavy Intensity Rain23°C4 mph, NW98%364m1010hPa94%
27-Jun-2024 03:00Heavy Intensity Rain22°C9 mph, S100%10000m1011hPa91%
27-Jun-2024 06:00Overcast Clouds23°C4 mph, SW100%10000m1011hPa92%
27-Jun-2024 09:00Overcast Clouds23°C4 mph, W87%10000m1010hPa93%
27-Jun-2024 12:00Broken Clouds25°C4 mph, SW69%10000m1011hPa86%
27-Jun-2024 15:00Clear Sky32°C7 mph, W3%10000m1011hPa52%
27-Jun-2024 18:00Clear Sky36°C7 mph, SW4%10000m1010hPa35%
27-Jun-2024 21:00Broken Clouds35°C4 mph, SE64%10000m1008hPa42%
28-Jun-2024 00:00Broken Clouds29°C7 mph, SW74%10000m1010hPa58%
28-Jun-2024 03:00Light Rain27°C4 mph, SW59%10000m1012hPa69%
28-Jun-2024 06:00Broken Clouds26°C7 mph, SW77%10000m1011hPa78%
28-Jun-2024 09:00Few Clouds25°C4 mph, W19%10000m1012hPa84%
28-Jun-2024 12:00Few Clouds26°C4 mph, W13%10000m1013hPa76%
28-Jun-2024 15:00Clear Sky33°C4 mph, W5%10000m1014hPa50%
28-Jun-2024 18:00Few Clouds36°C4 mph, SE12%10000m1013hPa40%
28-Jun-2024 21:00Overcast Clouds30°C7 mph, SE93%10000m1013hPa60%
29-Jun-2024 00:00Broken Clouds31°C2 mph, S57%10000m1014hPa59%
29-Jun-2024 03:00Light Rain26°C7 mph, S14%10000m1016hPa85%
29-Jun-2024 06:00Clear Sky25°C2 mph, W7%10000m1016hPa87%
29-Jun-2024 09:00Light Rain25°C2 mph, S0%10000m1016hPa89%
29-Jun-2024 12:00Clear Sky26°C2 mph, SW4%10000m1017hPa83%
29-Jun-2024 15:00Broken Clouds33°C2 mph, W61%10000m1018hPa52%
29-Jun-2024 18:00Broken Clouds35°C7 mph, E60%10000m1017hPa46%
29-Jun-2024 21:00Light Rain31°C7 mph, SE95%10000m1017hPa58%
30-Jun-2024 00:00Overcast Clouds30°C7 mph, SE87%10000m1017hPa64%
30-Jun-2024 03:00Light Rain27°C7 mph, SE10%10000m1018hPa79%
30-Jun-2024 06:00Clear Sky26°C4 mph, S5%10000m1019hPa77%
30-Jun-2024 09:00Few Clouds25°C2 mph, SW11%10000m1018hPa81%
30-Jun-2024 12:00Scattered Clouds27°C0 mph, S41%10000m1019hPa75%